createdAt,value
2022-11-22T00:00:50.968Z,20
2022-11-22T00:02:51.058Z,19
2022-11-22T00:04:51.173Z,16
2022-11-22T00:06:51.236Z,23
2022-11-22T00:08:51.384Z,29
2022-11-22T00:10:51.444Z,30
2022-11-22T00:12:51.544Z,23
2022-11-22T00:14:56.566Z,21
2022-11-22T00:16:51.688Z,15
2022-11-22T00:18:51.794Z,13
2022-11-22T00:20:51.909Z,13
2022-11-22T00:22:51.984Z,21
2022-11-22T00:24:52.081Z,23
2022-11-22T00:26:52.206Z,21
2022-11-22T00:28:52.325Z,14
2022-11-22T00:30:52.393Z,14
2022-11-22T00:32:52.466Z,14
2022-11-22T00:34:52.563Z,11
2022-11-22T00:36:52.699Z,13
2022-11-22T00:38:52.757Z,13
2022-11-22T00:40:52.846Z,13
2022-11-22T00:42:52.947Z,13
2022-11-22T00:44:53.028Z,13
2022-11-22T00:46:53.098Z,16
2022-11-22T00:48:53.190Z,13
2022-11-22T00:50:53.290Z,14
2022-11-22T00:52:53.383Z,14
2022-11-22T00:54:55.226Z,14
2022-11-22T00:56:53.555Z,13
2022-11-22T00:58:53.653Z,18
2022-11-22T01:00:56.812Z,20
2022-11-22T01:02:53.919Z,19
2022-11-22T01:04:53.923Z,17
2022-11-22T01:06:54.012Z,16
2022-11-22T01:10:54.206Z,16
2022-11-22T01:12:54.278Z,15
2022-11-22T01:14:54.385Z,15
2022-11-22T01:16:54.469Z,15
2022-11-22T01:18:54.608Z,14
2022-11-22T01:20:54.647Z,14
2022-11-22T01:22:54.732Z,13
2022-11-22T01:24:54.804Z,13
2022-11-22T01:26:54.904Z,12
2022-11-22T01:28:54.996Z,11
2022-11-22T01:30:55.047Z,12
2022-11-22T01:32:55.163Z,13
2022-11-22T01:34:55.240Z,14
2022-11-22T01:36:55.366Z,15
2022-11-22T01:38:55.452Z,16
2022-11-22T01:40:55.544Z,16
2022-11-22T01:42:55.625Z,14
2022-11-22T01:44:55.714Z,15
2022-11-22T01:46:55.808Z,16
2022-11-22T01:50:55.994Z,16
2022-11-22T01:52:56.076Z,17
2022-11-22T01:54:56.163Z,16
2022-11-22T01:56:56.263Z,17
2022-11-22T01:58:56.333Z,17
2022-11-22T02:00:56.462Z,15
2022-11-22T02:02:56.484Z,15
2022-11-22T02:04:56.574Z,15
2022-11-22T02:06:56.659Z,15
2022-11-22T02:08:56.734Z,15
2022-11-22T02:10:56.803Z,11
2022-11-22T02:12:56.907Z,11
2022-11-22T02:14:56.983Z,10
2022-11-22T02:16:57.094Z,9
2022-11-22T02:18:57.177Z,9
2022-11-22T02:20:57.262Z,8
2022-11-22T02:22:57.329Z,8
2022-11-22T02:24:57.390Z,8
2022-11-22T02:26:57.568Z,8
2022-11-22T02:28:57.564Z,8
2022-11-22T02:30:57.660Z,8
2022-11-22T02:32:57.735Z,8
2022-11-22T02:34:57.849Z,8
2022-11-22T02:36:57.944Z,7
2022-11-22T02:38:58.028Z,8
2022-11-22T02:40:58.130Z,9
2022-11-22T02:42:58.177Z,8
2022-11-22T02:47:28.421Z,8
2022-11-22T02:51:28.626Z,8
2022-11-22T02:53:28.723Z,7
2022-11-22T02:57:28.940Z,7
2022-11-22T02:59:29.477Z,8
2022-11-22T03:01:29.231Z,8
2022-11-22T03:03:29.294Z,7
2022-11-22T03:05:29.407Z,7
2022-11-22T03:07:29.615Z,6
2022-11-22T03:09:30.008Z,6
2022-11-22T03:11:29.728Z,7
2022-11-22T03:13:29.858Z,8
2022-11-22T03:15:30.004Z,7
2022-11-22T03:17:30.099Z,8
2022-11-22T03:19:30.569Z,8
2022-11-22T03:21:30.330Z,9
2022-11-22T03:23:30.457Z,8
2022-11-22T03:25:30.591Z,8
2022-11-22T03:27:30.685Z,8
2022-11-22T03:31:30.935Z,8
2022-11-22T03:33:31.020Z,9
2022-11-22T03:35:31.131Z,9
2022-11-22T03:37:31.276Z,8
2022-11-22T03:39:31.657Z,9
2022-11-22T03:41:31.499Z,9
2022-11-22T03:43:31.625Z,9
2022-11-22T03:45:31.711Z,9
2022-11-22T03:47:31.827Z,9
2022-11-22T03:49:32.283Z,9
2022-11-22T03:51:32.044Z,9
2022-11-22T03:53:32.159Z,10
2022-11-22T03:55:32.280Z,10
2022-11-22T03:57:32.407Z,9
2022-11-22T03:59:32.708Z,10
2022-11-22T04:01:32.667Z,10
2022-11-22T04:03:32.723Z,10
2022-11-22T04:05:32.850Z,9
2022-11-22T04:07:33.015Z,9
2022-11-22T04:11:33.104Z,8
2022-11-22T04:13:33.228Z,8
2022-11-22T04:15:33.353Z,8
2022-11-22T04:17:33.463Z,8
2022-11-22T04:19:33.588Z,8
2022-11-22T04:21:33.708Z,8
2022-11-22T04:23:34.392Z,7
2022-11-22T04:25:33.940Z,8
2022-11-22T04:27:34.037Z,8
2022-11-22T04:29:34.169Z,7
2022-11-22T04:31:34.287Z,7
2022-11-22T04:33:34.400Z,7
2022-11-22T04:39:34.745Z,7
2022-11-22T04:41:34.853Z,7
2022-11-22T04:43:34.977Z,7
2022-11-22T04:45:35.099Z,8
2022-11-22T04:47:35.180Z,8
2022-11-22T04:49:35.317Z,8
2022-11-22T04:51:35.397Z,8
2022-11-22T04:53:35.496Z,7
2022-11-22T04:55:35.622Z,7
2022-11-22T04:57:35.723Z,8
2022-11-22T04:59:35.866Z,9
2022-11-22T05:01:36.016Z,10
2022-11-22T05:03:36.059Z,11
2022-11-22T05:05:36.246Z,10
2022-11-22T05:07:36.414Z,9
2022-11-22T05:09:36.423Z,8
2022-11-22T05:11:36.544Z,7
2022-11-22T05:13:36.667Z,7
2022-11-22T05:15:36.754Z,7
2022-11-22T05:17:36.873Z,7
2022-11-22T05:19:37.005Z,10
2022-11-22T05:21:37.093Z,11
2022-11-22T05:23:37.250Z,11
2022-11-22T05:27:37.525Z,10
2022-11-22T05:29:37.566Z,9
2022-11-22T05:31:37.629Z,7
2022-11-22T05:33:37.752Z,8
2022-11-22T05:35:37.884Z,7
2022-11-22T05:37:37.992Z,9
2022-11-22T05:39:38.096Z,8
2022-11-22T05:41:38.205Z,8
2022-11-22T05:43:38.345Z,7
2022-11-22T05:45:38.495Z,6
2022-11-22T05:47:38.550Z,7
2022-11-22T05:49:38.635Z,8
2022-11-22T05:51:38.773Z,8
2022-11-22T05:53:38.908Z,9
2022-11-22T05:55:38.995Z,10
2022-11-22T05:57:39.103Z,11
2022-11-22T05:59:43.785Z,11
2022-11-22T06:01:39.384Z,10
2022-11-22T06:03:39.422Z,9
2022-11-22T06:05:39.553Z,8
2022-11-22T06:07:39.710Z,8
2022-11-22T06:09:39.778Z,9
2022-11-22T06:11:39.862Z,9
2022-11-22T06:13:40.000Z,8
2022-11-22T06:15:40.089Z,9
2022-11-22T06:17:40.226Z,8
2022-11-22T06:19:40.444Z,8
2022-11-22T06:21:40.434Z,8
2022-11-22T06:23:40.539Z,8
2022-11-22T06:25:40.662Z,8
2022-11-22T06:27:40.780Z,11
2022-11-22T06:29:40.872Z,21
2022-11-22T06:31:41.052Z,20
2022-11-22T06:33:41.082Z,29
2022-11-22T06:35:41.194Z,34
2022-11-22T06:37:41.326Z,43
2022-11-22T06:39:41.402Z,41
2022-11-22T06:41:41.539Z,39
2022-11-22T06:43:45.291Z,35
2022-11-22T06:45:41.759Z,34
2022-11-22T06:47:41.854Z,31
2022-11-22T06:49:41.984Z,31
2022-11-22T06:51:42.136Z,32
2022-11-22T06:53:48.155Z,30
2022-11-22T06:55:50.924Z,30
2022-11-22T06:57:42.392Z,29
2022-11-22T06:59:42.509Z,28
2022-11-22T07:01:42.752Z,27
2022-11-22T07:03:42.731Z,23
2022-11-22T07:05:42.854Z,23
2022-11-22T07:07:43.067Z,24
2022-11-22T07:09:43.053Z,23
2022-11-22T07:11:43.171Z,28
2022-11-22T07:13:43.298Z,38
2022-11-22T07:15:43.406Z,37
2022-11-22T07:17:43.474Z,38
2022-11-22T07:19:43.578Z,42
2022-11-22T07:21:43.694Z,44
2022-11-22T07:23:43.809Z,44
2022-11-22T07:25:43.900Z,53
2022-11-22T07:27:44.007Z,52
2022-11-22T07:29:44.159Z,50
2022-11-22T07:31:44.245Z,51
2022-11-22T07:33:44.333Z,51
2022-11-22T07:35:44.457Z,52
2022-11-22T07:37:44.583Z,51
2022-11-22T07:39:44.663Z,53
2022-11-22T07:43:44.867Z,52
2022-11-22T07:45:44.996Z,47
2022-11-22T07:47:45.139Z,44
2022-11-22T07:49:45.197Z,38
2022-11-22T07:51:45.507Z,39
2022-11-22T07:53:45.434Z,36
2022-11-22T07:55:45.552Z,33
2022-11-22T07:57:46.665Z,32
2022-11-22T07:59:45.732Z,39
2022-11-22T08:01:45.945Z,39
2022-11-22T08:03:45.963Z,40
2022-11-22T08:05:46.065Z,38
2022-11-22T08:07:46.268Z,36
2022-11-22T08:09:46.281Z,34
2022-11-22T08:11:46.389Z,31
2022-11-22T08:13:46.514Z,29
2022-11-22T08:15:46.598Z,29
2022-11-22T08:17:46.697Z,28
2022-11-22T08:21:46.922Z,28
2022-11-22T08:23:47.048Z,26
2022-11-22T08:25:47.160Z,26
2022-11-22T08:27:47.297Z,27
2022-11-22T08:31:47.464Z,27
2022-11-22T08:33:47.570Z,30
2022-11-22T08:35:47.672Z,24
2022-11-22T08:37:47.779Z,21
2022-11-22T08:39:47.892Z,17
2022-11-22T08:41:48.005Z,19
2022-11-22T08:43:48.117Z,18
2022-11-22T08:45:48.220Z,18
2022-11-22T08:47:48.391Z,19
2022-11-22T08:49:48.426Z,20
2022-11-22T08:51:48.526Z,20
2022-11-22T08:53:48.626Z,21
2022-11-22T08:55:48.751Z,21
2022-11-22T08:57:48.851Z,17
2022-11-22T08:59:48.958Z,16
2022-11-22T09:01:49.147Z,16
2022-11-22T09:03:49.180Z,15
2022-11-22T09:09:49.706Z,21
2022-11-22T09:11:49.611Z,21
2022-11-22T09:13:49.725Z,23
2022-11-22T09:15:49.818Z,24
2022-11-22T09:17:49.905Z,25
2022-11-22T09:19:49.994Z,27
2022-11-22T09:21:50.092Z,30
2022-11-22T09:23:50.182Z,29
2022-11-22T09:25:50.310Z,28
2022-11-22T09:27:50.386Z,24
2022-11-22T09:29:50.583Z,25
2022-11-22T09:31:50.592Z,24
2022-11-22T09:33:50.706Z,21
2022-11-22T09:35:50.788Z,20
2022-11-22T09:37:50.873Z,19
2022-11-22T09:39:50.981Z,18
2022-11-22T09:41:51.108Z,16
2022-11-22T09:43:51.190Z,15
2022-11-22T09:45:51.300Z,15
2022-11-22T09:47:51.396Z,16
2022-11-22T09:49:51.483Z,15
2022-11-22T09:51:51.610Z,15
2022-11-22T09:53:51.681Z,15
2022-11-22T09:55:51.766Z,16
2022-11-22T09:57:51.864Z,16
2022-11-22T09:59:51.969Z,15
2022-11-22T10:01:52.150Z,12
2022-11-22T10:03:52.163Z,12
2022-11-22T10:05:52.281Z,10
2022-11-22T10:07:52.416Z,12
2022-11-22T10:09:52.479Z,15
2022-11-22T10:11:52.568Z,16
2022-11-22T10:13:53.684Z,14
2022-11-22T10:15:52.799Z,14
2022-11-22T10:17:52.825Z,13
2022-11-22T10:19:52.930Z,14
2022-11-22T10:21:53.009Z,12
2022-11-22T10:23:53.114Z,13
2022-11-22T10:25:53.222Z,12
2022-11-22T10:27:56.260Z,12
2022-11-22T10:29:53.392Z,12
2022-11-22T10:31:53.471Z,12
2022-11-22T10:33:53.573Z,13
2022-11-22T10:35:53.654Z,12
2022-11-22T10:37:53.748Z,12
2022-11-22T10:39:53.830Z,14
2022-11-22T10:41:53.921Z,13
2022-11-22T10:43:54.098Z,13
2022-11-22T10:45:54.118Z,12
2022-11-22T10:47:54.321Z,12
2022-11-22T10:49:54.311Z,14
2022-11-22T10:51:54.375Z,14
2022-11-22T10:53:58.866Z,13
2022-11-22T10:55:54.567Z,15
2022-11-22T10:57:54.656Z,13
2022-11-22T10:59:54.742Z,17
2022-11-22T11:01:54.835Z,10
2022-11-22T11:03:54.920Z,10
2022-11-22T11:06:22.733Z,11
2022-11-22T11:10:12.841Z,11
2022-11-22T11:11:55.267Z,12
2022-11-22T11:13:55.363Z,12
2022-11-22T11:15:56.366Z,11
2022-11-22T11:17:55.551Z,11
2022-11-22T11:21:55.683Z,12
2022-11-22T11:23:55.816Z,12
2022-11-22T11:25:55.869Z,12
2022-11-22T11:27:55.953Z,13
2022-11-22T11:29:56.058Z,12
2022-11-22T11:31:56.150Z,15
2022-11-22T11:33:56.224Z,24
2022-11-22T11:35:56.356Z,24
2022-11-22T11:37:56.385Z,23
2022-11-22T11:39:56.478Z,25
2022-11-22T11:41:56.592Z,22
2022-11-22T11:43:56.666Z,24
2022-11-22T11:45:56.740Z,17
2022-11-22T11:47:56.795Z,19
2022-11-22T11:49:56.890Z,24
2022-11-22T11:51:56.991Z,35
2022-11-22T11:53:57.086Z,31
2022-11-22T11:55:57.156Z,29
2022-11-22T11:57:57.219Z,24
2022-11-22T11:59:57.311Z,30
2022-11-22T12:01:57.445Z,25
2022-11-22T12:03:57.606Z,23
2022-11-22T12:05:57.664Z,25
2022-11-22T12:07:57.853Z,26
2022-11-22T12:09:57.830Z,25
2022-11-22T12:11:57.944Z,22
2022-11-22T12:14:42.653Z,23
2022-11-22T12:16:28.233Z,25
2022-11-22T12:18:28.290Z,30
2022-11-22T12:20:28.409Z,29
2022-11-22T12:22:48.852Z,27
2022-11-22T12:24:48.741Z,29
2022-11-22T12:26:28.674Z,33
2022-11-22T12:28:28.785Z,31
2022-11-22T12:30:28.908Z,30
2022-11-22T12:32:29.012Z,25
2022-11-22T12:34:29.414Z,23
2022-11-22T12:36:32.662Z,26
2022-11-22T12:38:29.342Z,25
2022-11-22T12:40:29.460Z,21
2022-11-22T12:42:29.570Z,21
2022-11-22T12:44:29.915Z,28
2022-11-22T12:46:29.791Z,30
2022-11-22T12:48:30.093Z,31
2022-11-22T12:50:29.992Z,34
2022-11-22T12:52:30.100Z,78
2022-11-22T12:54:30.503Z,69
2022-11-22T12:56:33.776Z,78
2022-11-22T12:58:30.436Z,74
2022-11-22T13:00:30.541Z,79
2022-11-22T13:02:30.632Z,64
2022-11-22T13:04:30.899Z,65
2022-11-22T13:06:30.877Z,57
2022-11-22T13:08:30.958Z,45
2022-11-22T13:10:31.055Z,45
2022-11-22T13:12:31.175Z,44
2022-11-22T13:14:31.602Z,39
2022-11-22T13:16:31.385Z,32
2022-11-22T13:18:31.508Z,30
2022-11-22T13:20:31.618Z,31
2022-11-22T13:22:31.718Z,30
2022-11-22T13:24:32.138Z,27
2022-11-22T13:26:31.934Z,24
2022-11-22T13:28:32.010Z,22
2022-11-22T13:30:32.129Z,21
2022-11-22T13:32:32.216Z,18
2022-11-22T13:34:32.637Z,18
2022-11-22T13:36:32.428Z,20
2022-11-22T13:38:32.594Z,20
2022-11-22T13:40:32.653Z,22
2022-11-22T13:42:32.767Z,18
2022-11-22T13:44:33.385Z,16
2022-11-22T13:46:32.981Z,14
2022-11-22T13:48:33.055Z,15
2022-11-22T13:50:33.152Z,15
2022-11-22T13:52:33.231Z,16
2022-11-22T13:54:33.877Z,16
2022-11-22T13:56:33.421Z,18
2022-11-22T13:58:33.552Z,20
2022-11-22T14:00:33.600Z,22
2022-11-22T14:02:33.690Z,21
2022-11-22T14:04:33.883Z,17
2022-11-22T14:06:33.882Z,16
2022-11-22T14:08:33.999Z,12
2022-11-22T14:12:34.200Z,12
2022-11-22T14:14:34.305Z,11
2022-11-22T14:16:34.398Z,13
2022-11-22T14:18:34.547Z,13
2022-11-22T14:20:34.597Z,13
2022-11-22T14:22:34.678Z,12
2022-11-22T14:24:34.767Z,10
2022-11-22T14:26:34.857Z,9
2022-11-22T14:28:34.947Z,11
2022-11-22T14:30:35.052Z,12
2022-11-22T14:32:35.122Z,14
2022-11-22T14:34:35.214Z,12
2022-11-22T14:36:35.312Z,13
2022-11-22T14:40:35.519Z,13
2022-11-22T14:42:35.604Z,13
2022-11-22T14:44:35.704Z,14
2022-11-22T14:46:52.699Z,11
2022-11-22T14:48:35.882Z,12
2022-11-22T14:50:35.981Z,13
2022-11-22T14:52:36.084Z,12
2022-11-22T14:54:36.208Z,12
2022-11-22T14:56:36.279Z,14
2022-11-22T14:58:36.439Z,16
2022-11-22T15:00:36.477Z,15
2022-11-22T15:02:36.587Z,14
2022-11-22T15:09:13.159Z,15
2022-11-22T15:09:16.276Z,13
2022-11-22T15:09:21.749Z,14
2022-11-22T15:10:36.957Z,13
2022-11-22T15:12:37.001Z,15
2022-11-22T15:14:37.102Z,18
2022-11-22T15:58:39.064Z,20
2022-11-22T16:00:39.162Z,20
2022-11-22T16:02:39.257Z,21
2022-11-22T16:04:39.276Z,25
2022-11-22T16:06:39.375Z,22
2022-11-22T16:08:39.464Z,22
2022-11-22T16:10:39.559Z,22
2022-11-22T16:12:39.650Z,23
2022-11-22T16:14:39.759Z,23
2022-11-22T16:16:39.853Z,22
2022-11-22T16:18:39.948Z,22
2022-11-22T16:20:40.028Z,21
2022-11-22T16:22:40.162Z,22
2022-11-22T16:24:40.214Z,22
2022-11-22T16:26:40.292Z,24
2022-11-22T16:28:40.372Z,21
2022-11-22T16:30:40.466Z,19
2022-11-22T16:32:40.566Z,15
2022-11-22T16:34:40.652Z,16
2022-11-22T16:36:40.744Z,15
2022-11-22T16:38:40.824Z,13
2022-11-22T16:40:40.918Z,11
2022-11-22T16:42:41.014Z,11
2022-11-22T16:44:41.093Z,12
2022-11-22T16:46:41.183Z,12
2022-11-22T16:48:41.266Z,10
2022-11-22T16:52:41.440Z,13
2022-11-22T16:58:41.699Z,14
2022-11-22T17:00:41.811Z,14
2022-11-22T17:02:42.390Z,14
2022-11-22T17:04:41.965Z,15
2022-11-22T17:06:42.065Z,13
2022-11-22T17:08:42.129Z,14
2022-11-22T17:13:12.435Z,15
2022-11-22T17:15:12.501Z,14
2022-11-22T17:17:12.626Z,17
2022-11-22T17:19:37.391Z,15
2022-11-22T17:21:12.872Z,14
2022-11-22T17:23:12.966Z,13
2022-11-22T17:25:13.079Z,11
2022-11-22T17:27:13.180Z,12
2022-11-22T17:29:28.993Z,11
2022-11-22T17:31:13.403Z,11
2022-11-22T17:33:13.505Z,11
2022-11-22T17:35:13.615Z,13
2022-11-22T17:37:13.749Z,14
2022-11-22T17:39:13.923Z,9
2022-11-22T17:41:13.955Z,8
2022-11-22T17:43:14.056Z,9
2022-11-22T17:45:14.164Z,10
2022-11-22T17:47:14.283Z,9
2022-11-22T17:49:16.395Z,10
2022-11-22T17:51:14.507Z,10
2022-11-22T17:53:14.615Z,10
2022-11-22T17:57:14.831Z,9
2022-11-22T17:59:14.959Z,8
2022-11-22T18:01:15.072Z,9
2022-11-22T18:03:15.252Z,8
2022-11-22T18:05:15.302Z,7
2022-11-22T18:07:15.538Z,9
2022-11-22T18:09:15.536Z,11
2022-11-22T18:11:15.638Z,11
2022-11-22T18:13:21.905Z,10
2022-11-22T18:15:15.843Z,10
2022-11-22T18:17:15.952Z,9
2022-11-22T18:19:16.079Z,8
2022-11-22T18:21:17.621Z,9
2022-11-22T18:23:16.310Z,8
2022-11-22T18:25:16.431Z,9
2022-11-22T18:27:16.528Z,9
2022-11-22T18:29:41.185Z,10
2022-11-22T18:33:16.821Z,9
2022-11-22T18:35:16.921Z,9
2022-11-22T18:37:17.037Z,9
2022-11-22T18:39:17.131Z,9
2022-11-22T18:41:17.258Z,10
2022-11-22T18:43:17.367Z,9
2022-11-22T18:45:17.495Z,10
2022-11-22T18:47:17.560Z,10
2022-11-22T18:49:17.678Z,11
2022-11-22T18:51:17.778Z,11
2022-11-22T18:53:17.865Z,11
2022-11-22T18:55:17.995Z,11
2022-11-22T18:57:18.087Z,13
2022-11-22T18:59:18.194Z,11
2022-11-22T19:01:18.520Z,11
2022-11-22T19:03:18.420Z,14
2022-11-22T19:05:23.251Z,13
2022-11-22T19:07:18.642Z,15
2022-11-22T19:09:18.768Z,13
2022-11-22T19:11:18.838Z,14
2022-11-22T19:13:18.960Z,14
2022-11-22T19:15:19.039Z,13
2022-11-22T19:17:22.037Z,13
2022-11-22T19:19:19.245Z,16
2022-11-22T19:21:19.348Z,17
2022-11-22T19:23:19.430Z,15
2022-11-22T19:25:19.529Z,12
2022-11-22T19:27:19.646Z,11
2022-11-22T19:29:19.786Z,11
2022-11-22T19:31:19.868Z,10
2022-11-22T19:33:19.956Z,9
2022-11-22T19:35:20.014Z,9
2022-11-22T19:37:20.144Z,10
2022-11-22T19:39:20.244Z,9
2022-11-22T19:41:20.352Z,9
2022-11-22T19:43:20.436Z,8
2022-11-22T19:45:20.556Z,8
2022-11-22T19:47:20.663Z,7
2022-11-22T19:49:20.769Z,9
2022-11-22T19:51:20.876Z,9
2022-11-22T19:53:20.986Z,11
2022-11-22T19:55:21.081Z,10
2022-11-22T19:57:21.182Z,13
2022-11-22T19:59:21.278Z,10
2022-11-22T20:01:21.668Z,9
2022-11-22T20:03:21.486Z,10
2022-11-22T20:05:21.593Z,10
2022-11-22T20:07:21.728Z,9
2022-11-22T20:09:21.796Z,10
2022-11-22T20:11:21.914Z,10
2022-11-22T20:13:21.996Z,11
2022-11-22T20:15:22.094Z,12
2022-11-22T20:17:22.193Z,11
2022-11-22T20:19:22.295Z,12
2022-11-22T20:21:22.802Z,12
2022-11-22T20:25:22.596Z,14
2022-11-22T20:27:24.856Z,10
2022-11-22T20:31:22.905Z,8
2022-11-22T20:33:23.001Z,9
2022-11-22T20:35:23.097Z,9
2022-11-22T20:37:23.254Z,12
2022-11-22T20:39:23.319Z,12
2022-11-22T20:41:23.416Z,12
2022-11-22T20:43:23.513Z,11
2022-11-22T20:45:23.612Z,11
2022-11-22T20:47:23.713Z,10
2022-11-22T20:49:23.866Z,10
2022-11-22T20:51:23.923Z,10
2022-11-22T20:53:24.008Z,8
2022-11-22T20:55:24.102Z,7
2022-11-22T20:57:24.227Z,9
2022-11-22T20:59:24.281Z,8
2022-11-22T21:01:24.500Z,7
2022-11-22T21:03:24.466Z,8
2022-11-22T21:05:24.567Z,9
2022-11-22T21:07:24.690Z,27
2022-11-22T21:09:24.756Z,44
2022-11-22T21:11:24.856Z,12
2022-11-22T21:13:24.949Z,12
2022-11-22T21:15:25.057Z,13
2022-11-22T21:17:41.952Z,13
2022-11-22T21:19:25.260Z,13
2022-11-22T21:21:25.356Z,12
2022-11-22T21:23:25.436Z,15
2022-11-22T21:25:25.512Z,13
2022-11-22T21:27:25.622Z,13
2022-11-22T21:29:25.716Z,13
2022-11-22T21:31:25.830Z,12
2022-11-22T21:33:26.000Z,13
2022-11-22T21:35:25.958Z,11
2022-11-22T21:37:26.050Z,9
2022-11-22T21:39:26.147Z,11
2022-11-22T21:41:39.754Z,12
2022-11-22T21:43:26.335Z,10
2022-11-22T21:45:26.429Z,11
2022-11-22T21:47:26.526Z,7
2022-11-22T21:49:26.621Z,5
2022-11-22T21:51:26.930Z,7
2022-11-22T21:53:26.810Z,7
2022-11-22T21:55:26.896Z,5
2022-11-22T21:57:26.990Z,9
2022-11-22T21:59:27.091Z,24
2022-11-22T22:01:27.248Z,25
2022-11-22T22:03:27.263Z,26
2022-11-22T22:05:27.342Z,25
2022-11-22T22:07:51.361Z,21
2022-11-22T22:09:27.496Z,20
2022-11-22T22:11:27.596Z,19
2022-11-22T22:13:27.669Z,20
2022-11-22T22:15:27.773Z,14
2022-11-22T22:17:32.857Z,17
2022-11-22T22:19:27.984Z,17
2022-11-22T22:21:28.118Z,15
2022-11-22T22:23:28.135Z,15
2022-11-22T22:25:28.252Z,16
2022-11-22T22:29:28.873Z,18
2022-11-22T22:31:28.484Z,19
2022-11-22T22:33:28.599Z,29
2022-11-22T22:35:28.649Z,21
2022-11-22T22:37:58.807Z,19
2022-11-22T22:39:58.904Z,19
2022-11-22T22:41:59.013Z,13
2022-11-22T22:43:59.155Z,13
2022-11-22T22:46:04.769Z,14
2022-11-22T22:47:59.437Z,15
2022-11-22T22:49:59.488Z,17
2022-11-22T22:53:59.727Z,18
2022-11-22T22:55:59.826Z,22
2022-11-22T22:57:59.972Z,23
2022-11-22T23:00:00.127Z,21
2022-11-22T23:02:00.174Z,18
2022-11-22T23:04:00.309Z,20
2022-11-22T23:06:00.423Z,21
2022-11-22T23:08:00.519Z,20
2022-11-22T23:10:00.644Z,19
2022-11-22T23:12:00.764Z,21
2022-11-22T23:14:00.878Z,23
2022-11-22T23:16:00.976Z,20
2022-11-22T23:18:01.110Z,13
2022-11-22T23:20:01.240Z,15
2022-11-22T23:22:01.325Z,13
2022-11-22T23:24:01.411Z,11
2022-11-22T23:26:01.539Z,12
2022-11-22T23:28:01.659Z,14
2022-11-22T23:30:01.780Z,11
2022-11-22T23:32:01.864Z,10
2022-11-22T23:34:01.994Z,9
2022-11-22T23:36:02.106Z,10
2022-11-22T23:38:02.200Z,10
2022-11-22T23:40:02.372Z,10
2022-11-22T23:42:02.423Z,10
2022-11-22T23:44:02.553Z,10
2022-11-22T23:46:02.633Z,8
2022-11-22T23:48:02.760Z,6
2022-11-22T23:50:02.849Z,6
2022-11-22T23:52:02.950Z,5
2022-11-22T23:56:03.142Z,6
